Time;durP1;ratioP1;P1;durP2;ratioP2;P2;SDS_P1;SDS_P2;PMS_P1;PMS_P2;Temp;Humidity;BMP_temperature;BMP_pressure;BME280_temperature;BME280_humidity;BME280_pressure;Samples;Min_cycle;Max_cycle;Signal;HPM_P1;HPM_P2
2023/01/29 00:00:37;;;;;;;8.95;1.92;;;;;;;;;;5093791;28;20012;-58
2023/01/29 00:03:03;;;;;;;7.68;1.17;;;;;;;;;;5093722;28;20020;-57
2023/01/29 00:05:28;;;;;;;3.05;1.30;;;;;;;;;;5091911;28;20048;-59
2023/01/29 00:07:55;;;;;;;7.90;1.50;;;;;;;;;;5092477;28;20496;-64
2023/01/29 00:10:20;;;;;;;4.65;0.93;;;;;;;;;;5092690;28;20103;-59
2023/01/29 00:12:45;;;;;;;7.50;1.10;;;;;;;;;;5093755;28;20056;-62
2023/01/29 00:15:11;;;;;;;4.68;1.23;;;;;;;;;;5092670;28;20432;-59
2023/01/29 00:17:37;;;;;;;5.90;1.13;;;;;;;;;;5092357;28;20422;-58
2023/01/29 00:20:02;;;;;;;6.22;1.40;;;;;;;;;;5094393;28;20024;-58
2023/01/29 00:22:29;;;;;;;3.75;0.80;;;;;;;;;;5094876;28;20157;-61
2023/01/29 00:24:54;;;;;;;7.75;2.00;;;;;;;;;;5096484;28;20040;-62
2023/01/29 00:27:20;;;;;;;6.28;1.40;;;;;;;;;;5095137;28;20043;-58
2023/01/29 00:30:07;;;;;;;6.00;0.85;;;;;;;;;;5093509;28;20065;-59
2023/01/29 00:32:31;;;;;;;4.78;0.95;;;;;;;;;;5093823;28;20136;-60
2023/01/29 00:34:56;;;;;;;8.05;1.23;;;;;;;;;;5093180;28;20464;-57
2023/01/29 00:37:22;;;;;;;5.88;1.58;;;;;;;;;;5094948;28;20107;-58
2023/01/29 00:39:47;;;;;;;6.32;1.27;;;;;;;;;;5093367;28;20020;-58
2023/01/29 00:44:56;;;;;;;6.95;1.20;;;;;;;;;;5093179;28;20061;-59
2023/01/29 00:47:35;;;;;;;3.67;1.00;;;;;;;;;;5093034;28;20012;-58
2023/01/29 00:50:01;;;;;;;7.07;1.50;;;;;;;;;;5093165;28;20034;-57
2023/01/29 00:52:27;;;;;;;10.95;1.00;;;;;;;;;;5092381;28;20028;-62
2023/01/29 00:54:53;;;;;;;3.85;1.10;;;;;;;;;;5094303;28;20103;-59
2023/01/29 00:57:19;;;;;;;4.15;1.13;;;;;;;;;;5093054;28;20028;-63
2023/01/29 00:59:44;;;;;;;9.43;1.38;;;;;;;;;;5094961;28;20020;-59
2023/01/29 01:04:53;;;;;;;10.15;1.00;;;;;;;;;;5095017;28;20027;-58
2023/01/29 01:07:19;;;;;;;5.43;1.20;;;;;;;;;;5094311;28;20047;-56
2023/01/29 01:12:29;;;;;;;4.82;1.75;;;;;;;;;;5093118;28;20480;-59
2023/01/29 01:14:55;;;;;;;4.95;1.05;;;;;;;;;;5093397;28;20020;-58
2023/01/29 01:17:20;;;;;;;1.85;0.50;;;;;;;;;;5092601;28;20127;-59
2023/01/29 01:19:45;;;;;;;7.55;1.83;;;;;;;;;;5091989;28;20021;-62
2023/01/29 01:22:11;;;;;;;8.20;1.13;;;;;;;;;;5091617;28;20023;-58
2023/01/29 01:24:37;;;;;;;9.02;1.50;;;;;;;;;;5091287;28;20020;-60
2023/01/29 01:27:02;;;;;;;8.38;1.42;;;;;;;;;;5092413;28;20012;-58
2023/01/29 01:29:28;;;;;;;6.82;1.27;;;;;;;;;;5092616;28;20105;-58
2023/01/29 01:31:53;;;;;;;5.82;0.95;;;;;;;;;;5092396;28;20023;-60
2023/01/29 01:34:18;;;;;;;5.57;1.50;;;;;;;;;;5091547;28;20031;-57
2023/01/29 01:36:44;;;;;;;9.02;1.27;;;;;;;;;;5092700;28;20032;-58
2023/01/29 01:39:09;;;;;;;8.75;0.93;;;;;;;;;;5091268;28;20028;-58
2023/01/29 01:41:35;;;;;;;7.22;1.58;;;;;;;;;;5093273;28;20046;-58
2023/01/29 01:44:01;;;;;;;3.28;1.08;;;;;;;;;;5092988;28;20028;-64
2023/01/29 01:46:30;;;;;;;10.95;1.27;;;;;;;;;;5091302;28;20027;-58
2023/01/29 01:48:59;;;;;;;4.93;1.60;;;;;;;;;;5093043;28;20028;-60
2023/01/29 01:51:27;;;;;;;9.35;1.58;;;;;;;;;;5092652;28;20566;-59
2023/01/29 01:53:58;;;;;;;5.82;1.00;;;;;;;;;;5094189;28;20020;-59
2023/01/29 01:56:27;;;;;;;6.60;1.40;;;;;;;;;;5096688;28;20035;-57
2023/01/29 01:58:55;;;;;;;6.72;1.15;;;;;;;;;;5096070;28;20016;-59
2023/01/29 02:01:28;;;;;;;9.23;1.20;;;;;;;;;;5095580;28;20461;-57
2023/01/29 02:09:32;;;;;;;11.02;1.80;;;;;;;;;;5096229;28;20065;-57
2023/01/29 02:11:57;;;;;;;2.85;1.02;;;;;;;;;;5096194;28;20122;-63
2023/01/29 02:14:24;;;;;;;7.00;1.60;;;;;;;;;;5096983;28;20481;-60
2023/01/29 02:16:49;;;;;;;5.85;1.60;;;;;;;;;;5098264;28;20035;-60
2023/01/29 02:19:28;;;;;;;7.40;1.20;;;;;;;;;;5096145;28;20081;-58
2023/01/29 02:22:27;;;;;;;8.30;2.22;;;;;;;;;;5095595;28;20160;-58
2023/01/29 02:25:11;;;;;;;5.35;1.02;;;;;;;;;;5084218;28;20035;-59
2023/01/29 02:27:42;;;;;;;9.02;1.83;;;;;;;;;;5095875;28;20020;-57
2023/01/29 02:30:07;;;;;;;6.07;1.33;;;;;;;;;;5094534;28;20020;-57
2023/01/29 02:32:57;;;;;;;5.40;1.40;;;;;;;;;;5095720;28;20104;-61
2023/01/29 02:35:31;;;;;;;4.47;1.05;;;;;;;;;;5097737;28;20448;-60
2023/01/29 02:38:12;;;;;;;5.97;1.40;;;;;;;;;;5099198;28;20042;-58
2023/01/29 02:40:37;;;;;;;8.15;1.95;;;;;;;;;;5096175;28;20027;-58
2023/01/29 02:43:24;;;;;;;8.70;1.73;;;;;;;;;;5095575;28;20024;-63
2023/01/29 02:46:00;;;;;;;17.58;1.92;;;;;;;;;;5095662;28;20024;-59
2023/01/29 02:48:28;;;;;;;4.55;1.23;;;;;;;;;;5094376;28;20068;-58
2023/01/29 02:51:06;;;;;;;4.72;1.58;;;;;;;;;;5095506;28;20020;-58
2023/01/29 02:53:41;;;;;;;6.40;1.40;;;;;;;;;;5095761;28;20055;-58
2023/01/29 02:56:06;;;;;;;;;;;;;;;;;;5094874;28;20020;-58
2023/01/29 02:58:36;;;;;;;9.10;1.40;;;;;;;;;;5095341;28;19915;-59
2023/01/29 03:01:06;;;;;;;4.22;1.38;;;;;;;;;;5093798;28;20016;-58
2023/01/29 03:03:38;;;;;;;6.30;1.30;;;;;;;;;;5096079;28;20048;-59
2023/01/29 03:06:21;;;;;;;11.65;2.60;;;;;;;;;;5095542;28;20515;-59
2023/01/29 03:08:52;;;;;;;7.65;1.85;;;;;;;;;;5095994;28;20012;-59
2023/01/29 03:11:19;;;;;;;4.47;1.38;;;;;;;;;;5094674;28;20019;-58
2023/01/29 03:13:44;;;;;;;6.10;1.30;;;;;;;;;;5095016;28;20157;-59
2023/01/29 03:16:13;;;;;;;7.10;1.95;;;;;;;;;;5093182;28;20647;-58
2023/01/29 03:18:44;;;;;;;6.55;2.40;;;;;;;;;;5093796;28;20032;-58
2023/01/29 03:32:16;;;;;;;10.80;1.88;;;;;;;;;;5094612;28;20171;-58
2023/01/29 03:34:45;;;;;;;7.85;1.73;;;;;;;;;;5094304;28;20468;-58
2023/01/29 03:37:18;;;;;;;8.65;1.63;;;;;;;;;;5092602;28;20028;-57
2023/01/29 03:39:43;;;;;;;9.27;1.67;;;;;;;;;;5093277;28;20465;-61
2023/01/29 03:42:09;;;;;;;10.70;1.80;;;;;;;;;;5093256;28;20065;-57
2023/01/29 03:44:39;;;;;;;6.85;2.65;;;;;;;;;;5093742;28;20107;-58
2023/01/29 03:47:17;;;;;;;8.35;1.48;;;;;;;;;;5095052;28;20069;-58
2023/01/29 03:49:54;;;;;;;4.38;1.42;;;;;;;;;;5094206;28;20020;-58
2023/01/29 03:52:27;;;;;;;8.23;1.67;;;;;;;;;;5094229;28;20176;-58
2023/01/29 03:54:56;;;;;;;6.95;2.78;;;;;;;;;;5094029;28;20048;-59
2023/01/29 03:57:27;;;;;;;13.43;2.50;;;;;;;;;;5094523;28;20537;-57
2023/01/29 04:00:11;;;;;;;8.88;2.08;;;;;;;;;;5093763;28;20102;-58
2023/01/29 04:02:45;;;;;;;10.63;2.30;;;;;;;;;;5094684;28;20465;-59
2023/01/29 04:05:15;;;;;;;8.63;2.30;;;;;;;;;;5093065;28;20107;-58
2023/01/29 04:07:41;;;;;;;10.00;2.30;;;;;;;;;;5093887;28;20047;-57
2023/01/29 04:10:10;;;;;;;13.60;2.47;;;;;;;;;;5093830;28;20016;-57
2023/01/29 04:12:38;;;;;;;8.50;2.17;;;;;;;;;;5093839;28;20016;-59
2023/01/29 04:15:04;;;;;;;7.40;1.70;;;;;;;;;;5091927;28;20024;-59
2023/01/29 04:17:34;;;;;;;9.93;1.80;;;;;;;;;;5092432;28;20040;-57
2023/01/29 04:19:59;;;;;;;7.65;1.80;;;;;;;;;;5092214;28;20020;-59
2023/01/29 04:22:30;;;;;;;9.65;2.15;;;;;;;;;;5092410;28;20020;-58
2023/01/29 04:25:01;;;;;;;6.72;1.80;;;;;;;;;;5093963;28;20487;-57
2023/01/29 04:27:37;;;;;;;6.78;1.98;;;;;;;;;;5093146;28;20016;-58
2023/01/29 04:30:02;;;;;;;6.95;1.90;;;;;;;;;;5093372;28;20076;-58
2023/01/29 04:32:31;;;;;;;6.13;2.10;;;;;;;;;;5093290;28;20099;-58
2023/01/29 04:35:04;;;;;;;5.95;1.83;;;;;;;;;;5093119;28;20024;-59
2023/01/29 04:37:34;;;;;;;5.07;2.20;;;;;;;;;;5092164;28;20239;-59
2023/01/29 04:40:02;;;;;;;7.47;1.52;;;;;;;;;;5091928;28;20020;-57
2023/01/29 04:42:40;;;;;;;7.53;1.95;;;;;;;;;;5093404;28;20076;-59
2023/01/29 04:45:12;;;;;;;7.07;2.97;;;;;;;;;;5091894;28;20016;-58
2023/01/29 04:47:37;;;;;;;8.57;1.85;;;;;;;;;;5093121;28;20020;-57
2023/01/29 04:50:14;;;;;;;11.95;2.72;;;;;;;;;;5091707;28;20027;-58
2023/01/29 04:52:55;;;;;;;9.60;1.75;;;;;;;;;;5093510;28;20050;-58
2023/01/29 04:55:26;;;;;;;7.25;1.83;;;;;;;;;;5095233;28;20035;-66
2023/01/29 04:57:55;;;;;;;8.23;2.38;;;;;;;;;;5095905;28;20028;-58
2023/01/29 05:00:20;;;;;;;8.88;1.63;;;;;;;;;;5094313;28;20034;-58
2023/01/29 05:02:46;;;;;;;11.30;2.13;;;;;;;;;;5093624;28;20489;-62
2023/01/29 05:05:12;;;;;;;4.25;1.25;;;;;;;;;;5095622;28;20012;-62
2023/01/29 05:07:38;;;;;;;8.52;2.22;;;;;;;;;;5095497;28;20080;-61
2023/01/29 05:10:05;;;;;;;7.75;2.05;;;;;;;;;;5093789;28;20027;-58
2023/01/29 05:12:30;;;;;;;7.72;1.45;;;;;;;;;;5092887;28;20020;-60
2023/01/29 05:14:59;;;;;;;8.65;1.58;;;;;;;;;;5094469;28;20020;-58
2023/01/29 05:17:25;;;;;;;9.40;2.47;;;;;;;;;;5095493;28;20485;-58
2023/01/29 05:19:51;;;;;;;11.98;2.20;;;;;;;;;;5095754;28;20023;-61
2023/01/29 05:22:17;;;;;;;8.95;1.88;;;;;;;;;;5095009;28;20107;-59
2023/01/29 05:24:43;;;;;;;4.72;1.30;;;;;;;;;;5094187;28;20028;-58
2023/01/29 05:30:04;;;;;;;11.63;2.37;;;;;;;;;;5093294;28;20027;-59
2023/01/29 05:32:29;;;;;;;5.78;1.75;;;;;;;;;;5091206;28;20020;-58
2023/01/29 05:34:55;;;;;;;8.88;3.10;;;;;;;;;;5091306;28;20031;-59
2023/01/29 05:37:20;;;;;;;7.88;2.42;;;;;;;;;;5091043;28;20034;-58
2023/01/29 05:39:45;;;;;;;6.45;1.40;;;;;;;;;;5091557;28;20599;-58
2023/01/29 05:42:11;;;;;;;7.50;1.80;;;;;;;;;;5093835;28;20016;-56
2023/01/29 05:44:37;;;;;;;7.97;1.75;;;;;;;;;;5095472;28;20608;-58
2023/01/29 05:47:03;;;;;;;6.72;2.67;;;;;;;;;;5095012;28;20468;-58
2023/01/29 05:49:28;;;;;;;7.60;1.90;;;;;;;;;;5096773;28;20027;-57
2023/01/29 05:51:54;;;;;;;9.23;1.58;;;;;;;;;;5096578;28;20012;-59
2023/01/29 05:54:19;;;;;;;8.75;2.03;;;;;;;;;;5095200;28;20024;-60
2023/01/29 05:56:44;;;;;;;9.63;2.75;;;;;;;;;;5095418;28;20028;-60
2023/01/29 05:59:10;;;;;;;10.70;3.13;;;;;;;;;;5096331;28;20024;-61
2023/01/29 06:01:35;;;;;;;6.45;1.45;;;;;;;;;;5095442;28;20031;-60
2023/01/29 06:04:01;;;;;;;9.10;1.55;;;;;;;;;;5096524;28;20027;-60
2023/01/29 06:06:26;;;;;;;7.47;2.33;;;;;;;;;;5094796;28;20056;-58
2023/01/29 06:08:52;;;;;;;6.55;2.17;;;;;;;;;;5096070;28;20103;-63
2023/01/29 06:11:19;;;;;;;9.30;2.30;;;;;;;;;;5096305;28;20047;-57
2023/01/29 06:13:47;;;;;;;8.27;2.10;;;;;;;;;;5096691;28;20388;-57
2023/01/29 06:16:12;;;;;;;8.38;2.40;;;;;;;;;;5096951;28;20073;-63
2023/01/29 06:18:38;;;;;;;6.07;2.35;;;;;;;;;;5096791;28;20063;-60
2023/01/29 06:21:05;;;;;;;6.97;2.50;;;;;;;;;;5096182;28;20027;-62
2023/01/29 06:23:31;;;;;;;4.43;1.55;;;;;;;;;;5096192;28;20027;-58
2023/01/29 06:26:04;;;;;;;8.57;2.20;;;;;;;;;;5094906;28;20470;-59
2023/01/29 06:28:30;;;;;;;3.17;1.35;;;;;;;;;;5095830;28;20073;-57
2023/01/29 06:30:59;;;;;;;4.95;1.90;;;;;;;;;;5095897;28;20381;-60
2023/01/29 06:33:25;;;;;;;8.88;2.60;;;;;;;;;;5095528;28;20097;-59
2023/01/29 06:36:00;;;;;;;8.18;2.55;;;;;;;;;;5095119;28;20031;-58
2023/01/29 06:38:26;;;;;;;7.93;2.20;;;;;;;;;;5094035;28;20377;-58
2023/01/29 06:40:51;;;;;;;7.75;2.13;;;;;;;;;;5095703;28;20027;-57
2023/01/29 06:43:17;;;;;;;11.98;3.10;;;;;;;;;;5094004;28;20050;-58
2023/01/29 06:45:49;;;;;;;8.40;2.10;;;;;;;;;;5096357;28;20020;-58
2023/01/29 06:48:14;;;;;;;8.25;2.30;;;;;;;;;;5096629;28;20043;-59
2023/01/29 06:50:40;;;;;;;3.42;1.40;;;;;;;;;;5095043;28;20469;-59
2023/01/29 06:53:05;;;;;;;11.63;2.10;;;;;;;;;;5093456;28;20023;-58
2023/01/29 06:55:30;;;;;;;2.78;1.48;;;;;;;;;;5095594;28;20031;-60
2023/01/29 06:57:56;;;;;;;2.85;1.50;;;;;;;;;;5097091;28;20028;-73
2023/01/29 07:00:21;;;;;;;4.05;1.17;;;;;;;;;;5098217;28;20043;-64
2023/01/29 07:02:50;;;;;;;7.05;2.33;;;;;;;;;;5098644;28;20044;-66
2023/01/29 07:05:15;;;;;;;4.38;2.10;;;;;;;;;;5096687;28;20107;-59
2023/01/29 07:07:41;;;;;;;6.57;1.77;;;;;;;;;;5095462;28;20075;-66
2023/01/29 07:10:07;;;;;;;2.22;1.33;;;;;;;;;;5094925;28;20032;-57
2023/01/29 07:12:33;;;;;;;10.10;2.03;;;;;;;;;;5094633;28;20012;-58
2023/01/29 07:14:58;;;;;;;3.50;1.50;;;;;;;;;;5096504;28;20393;-57
2023/01/29 07:17:24;;;;;;;12.23;3.42;;;;;;;;;;5097823;28;20020;-60
2023/01/29 07:19:49;;;;;;;9.13;2.22;;;;;;;;;;5096423;28;20104;-60
2023/01/29 07:22:15;;;;;;;9.48;2.50;;;;;;;;;;5094850;28;20012;-58
2023/01/29 07:24:41;;;;;;;9.85;2.30;;;;;;;;;;5095070;28;20027;-58
2023/01/29 07:27:06;;;;;;;11.50;3.20;;;;;;;;;;5093252;28;20024;-57
2023/01/29 07:29:31;;;;;;;11.05;2.45;;;;;;;;;;5094396;28;20111;-58
2023/01/29 07:31:57;;;;;;;8.73;1.90;;;;;;;;;;5094686;28;20020;-62
2023/01/29 07:34:22;;;;;;;11.63;2.97;;;;;;;;;;5094512;28;20019;-58
2023/01/29 07:36:48;;;;;;;14.05;2.88;;;;;;;;;;5094701;28;20389;-57
2023/01/29 07:39:13;;;;;;;6.38;2.50;;;;;;;;;;5094153;28;20012;-58
2023/01/29 07:41:39;;;;;;;6.13;2.97;;;;;;;;;;5093219;28;20024;-59
2023/01/29 07:44:04;;;;;;;8.77;2.70;;;;;;;;;;5095065;28;20023;-58
2023/01/29 07:46:30;;;;;;;13.25;2.45;;;;;;;;;;5094176;28;20052;-63
2023/01/29 07:48:56;;;;;;;6.40;2.50;;;;;;;;;;5094948;28;20488;-59
2023/01/29 07:51:22;;;;;;;10.90;2.33;;;;;;;;;;5094572;28;20460;-58
2023/01/29 07:53:47;;;;;;;8.38;2.47;;;;;;;;;;5093647;28;20022;-63
2023/01/29 07:56:13;;;;;;;5.38;2.15;;;;;;;;;;5094810;28;20016;-61
2023/01/29 07:58:38;;;;;;;9.75;2.22;;;;;;;;;;5094969;28;20051;-61
2023/01/29 08:01:06;;;;;;;6.72;1.95;;;;;;;;;;5093874;28;20016;-61
2023/01/29 08:03:31;;;;;;;5.13;1.70;;;;;;;;;;5093933;28;20379;-64
2023/01/29 08:05:57;;;;;;;6.30;2.15;;;;;;;;;;5093555;28;20135;-59
2023/01/29 08:08:22;;;;;;;9.05;2.20;;;;;;;;;;5094424;28;20039;-61
2023/01/29 08:10:48;;;;;;;7.57;2.10;;;;;;;;;;5096271;28;20043;-61
2023/01/29 08:13:13;;;;;;;8.38;2.00;;;;;;;;;;5097070;28;20024;-59
2023/01/29 08:15:41;;;;;;;9.10;1.92;;;;;;;;;;5096181;28;20453;-62
2023/01/29 08:18:06;;;;;;;3.55;1.90;;;;;;;;;;5092914;28;20059;-58
2023/01/29 08:20:32;;;;;;;7.03;2.28;;;;;;;;;;5094726;28;20020;-59
2023/01/29 08:22:59;;;;;;;8.50;1.92;;;;;;;;;;5094003;28;20039;-64
2023/01/29 08:25:24;;;;;;;8.50;2.03;;;;;;;;;;5093977;28;20388;-60
2023/01/29 08:27:49;;;;;;;8.63;1.05;;;;;;;;;;5095334;28;20031;-67
2023/01/29 08:30:15;;;;;;;8.20;1.95;;;;;;;;;;5092867;28;20027;-59
2023/01/29 08:32:40;;;;;;;2.55;1.40;;;;;;;;;;5092295;28;20027;-60
2023/01/29 08:35:06;;;;;;;9.32;1.85;;;;;;;;;;5093570;28;20026;-59
2023/01/29 08:37:31;;;;;;;7.68;1.58;;;;;;;;;;5093878;28;20028;-61
2023/01/29 08:39:57;;;;;;;15.15;2.13;;;;;;;;;;5092111;28;20522;-57
2023/01/29 08:42:22;;;;;;;12.27;2.33;;;;;;;;;;5093178;28;20362;-59
2023/01/29 08:44:47;;;;;;;7.28;2.25;;;;;;;;;;5093320;28;20020;-58
2023/01/29 08:47:13;;;;;;;5.57;2.15;;;;;;;;;;5091551;28;20020;-58
2023/01/29 08:49:38;;;;;;;5.03;1.30;;;;;;;;;;5093098;28;20012;-60
2023/01/29 08:52:03;;;;;;;3.78;2.08;;;;;;;;;;5093685;28;20433;-58
2023/01/29 08:54:29;;;;;;;9.68;1.17;;;;;;;;;;5093434;28;20012;-59
2023/01/29 08:56:54;;;;;;;8.30;1.75;;;;;;;;;;5091929;28;20032;-61
2023/01/29 08:59:21;;;;;;;10.02;1.60;;;;;;;;;;5093094;28;20465;-58
2023/01/29 09:01:47;;;;;;;7.53;1.35;;;;;;;;;;5092880;28;20461;-59
2023/01/29 09:04:12;;;;;;;8.27;1.25;;;;;;;;;;5093160;28;20012;-64
2023/01/29 09:06:38;;;;;;;8.95;1.48;;;;;;;;;;5092494;28;20043;-59
2023/01/29 09:09:03;;;;;;;5.80;1.00;;;;;;;;;;5092724;28;20119;-58
2023/01/29 09:11:29;;;;;;;10.50;2.00;;;;;;;;;;5091481;28;20141;-58
2023/01/29 09:13:54;;;;;;;7.18;2.22;;;;;;;;;;5093001;28;20095;-59
2023/01/29 09:16:19;;;;;;;8.77;1.50;;;;;;;;;;5093939;28;20107;-60
2023/01/29 09:18:45;;;;;;;4.07;1.20;;;;;;;;;;5096943;28;20016;-59
2023/01/29 09:21:10;;;;;;;4.13;1.30;;;;;;;;;;5097049;28;20027;-64
2023/01/29 09:23:36;;;;;;;5.85;1.38;;;;;;;;;;5096810;28;20012;-59
2023/01/29 09:26:01;;;;;;;9.48;2.40;;;;;;;;;;5096428;28;20099;-63
2023/01/29 09:28:27;;;;;;;7.03;1.52;;;;;;;;;;5096893;28;20028;-59
2023/01/29 09:30:52;;;;;;;5.88;1.90;;;;;;;;;;5098279;28;20422;-63
2023/01/29 09:33:18;;;;;;;8.38;1.65;;;;;;;;;;5098371;28;20020;-58
2023/01/29 09:35:47;;;;;;;12.88;2.47;;;;;;;;;;5099541;28;20097;-59
2023/01/29 09:38:12;;;;;;;6.68;1.42;;;;;;;;;;5095776;28;20028;-59
2023/01/29 09:40:50;;;;;;;3.80;1.23;;;;;;;;;;5096539;28;20012;-61
2023/01/29 09:43:21;;;;;;;7.40;1.55;;;;;;;;;;5094972;28;20024;-59
2023/01/29 09:45:56;;;;;;;5.65;1.17;;;;;;;;;;5094904;28;20031;-60
2023/01/29 09:48:26;;;;;;;9.50;2.08;;;;;;;;;;5096643;28;20388;-60
2023/01/29 09:50:54;;;;;;;10.27;2.20;;;;;;;;;;5096441;28;20031;-58
2023/01/29 09:53:22;;;;;;;7.82;1.45;;;;;;;;;;5096376;28;20089;-60
2023/01/29 09:55:50;;;;;;;6.97;1.48;;;;;;;;;;5095544;28;20020;-59
2023/01/29 09:58:26;;;;;;;6.65;2.20;;;;;;;;;;5096025;28;20043;-57
2023/01/29 10:01:01;;;;;;;5.72;1.55;;;;;;;;;;5095047;28;20416;-61
2023/01/29 10:03:43;;;;;;;10.05;1.70;;;;;;;;;;5095055;28;20012;-59
2023/01/29 10:06:34;;;;;;;3.47;1.00;;;;;;;;;;5095322;28;20476;-58
2023/01/29 10:09:18;;;;;;;7.47;1.88;;;;;;;;;;5093726;28;20481;-59
2023/01/29 10:12:03;;;;;;;9.02;1.90;;;;;;;;;;5095022;28;20384;-58
2023/01/29 10:14:29;;;;;;;6.25;1.33;;;;;;;;;;5096802;28;20019;-61
2023/01/29 10:17:13;;;;;;;7.53;1.35;;;;;;;;;;5096047;28;20060;-59
2023/01/29 10:19:57;;;;;;;6.38;2.05;;;;;;;;;;5096205;28;20487;-61
2023/01/29 10:22:42;;;;;;;12.70;1.65;;;;;;;;;;5094658;28;20020;-59
2023/01/29 10:25:12;;;;;;;8.40;1.30;;;;;;;;;;5095473;28;20484;-57
2023/01/29 10:27:39;;;;;;;10.07;1.48;;;;;;;;;;5093975;28;20426;-59
2023/01/29 10:30:18;;;;;;;6.63;1.85;;;;;;;;;;5094655;28;20085;-58
2023/01/29 10:32:44;;;;;;;6.43;1.45;;;;;;;;;;5094467;28;20385;-60
2023/01/29 10:35:12;;;;;;;5.32;1.52;;;;;;;;;;5093958;28;20024;-60
2023/01/29 10:37:42;;;;;;;5.82;0.70;;;;;;;;;;5093889;28;20431;-58
2023/01/29 10:40:20;;;;;;;7.30;1.08;;;;;;;;;;5095849;28;20020;-62
2023/01/29 10:42:56;;;;;;;10.88;1.42;;;;;;;;;;5096269;28;20384;-59
2023/01/29 10:45:28;;;;;;;4.90;1.00;;;;;;;;;;5095841;28;20012;-58
2023/01/29 10:48:04;;;;;;;11.15;2.17;;;;;;;;;;5094116;28;20533;-59
2023/01/29 10:50:44;;;;;;;12.65;1.48;;;;;;;;;;5093969;28;20376;-59
2023/01/29 10:53:15;;;;;;;5.85;1.40;;;;;;;;;;5095789;28;20020;-60
2023/01/29 10:55:59;;;;;;;4.90;1.10;;;;;;;;;;5095456;28;20027;-59
2023/01/29 10:58:45;;;;;;;6.05;1.20;;;;;;;;;;5094836;28;20039;-59
2023/01/29 11:01:11;;;;;;;10.80;1.45;;;;;;;;;;5094682;28;20139;-60
2023/01/29 11:03:37;;;;;;;10.98;1.60;;;;;;;;;;5094342;28;20506;-60
2023/01/29 11:06:08;;;;;;;7.03;1.45;;;;;;;;;;5094238;28;20052;-59
2023/01/29 11:08:38;;;;;;;11.52;1.80;;;;;;;;;;5095042;28;20024;-60
2023/01/29 11:11:08;;;;;;;7.85;1.70;;;;;;;;;;5094849;28;20024;-60
2023/01/29 11:13:46;;;;;;;12.35;1.25;;;;;;;;;;5095375;28;20012;-61
2023/01/29 11:16:12;;;;;;;12.80;1.52;;;;;;;;;;5095908;28;20016;-58
2023/01/29 11:18:51;;;;;;;10.30;1.60;;;;;;;;;;5096802;28;20039;-65
2023/01/29 11:21:17;;;;;;;8.48;1.30;;;;;;;;;;5096167;28;20024;-61
2023/01/29 11:23:42;;;;;;;11.63;1.70;;;;;;;;;;5093012;28;20035;-60
2023/01/29 11:26:10;;;;;;;8.80;2.13;;;;;;;;;;5094514;28;20020;-60
2023/01/29 11:28:37;;;;;;;7.30;1.27;;;;;;;;;;5093243;28;20020;-58
2023/01/29 11:31:02;;;;;;;6.85;1.52;;;;;;;;;;5093727;28;20016;-59
2023/01/29 11:33:29;;;;;;;10.23;1.48;;;;;;;;;;5096578;28;20168;-60
2023/01/29 11:35:56;;;;;;;6.85;1.38;;;;;;;;;;5094116;28;20427;-59
2023/01/29 11:38:23;;;;;;;8.10;1.33;;;;;;;;;;5093965;28;20117;-62
2023/01/29 11:40:49;;;;;;;9.23;1.52;;;;;;;;;;5093675;28;20008;-58
2023/01/29 11:43:19;;;;;;;9.55;3.03;;;;;;;;;;5093798;28;20464;-60
2023/01/29 11:45:45;;;;;;;9.85;1.85;;;;;;;;;;5094461;28;20379;-59
2023/01/29 11:48:15;;;;;;;6.03;0.98;;;;;;;;;;5094333;28;20442;-59
2023/01/29 11:50:41;;;;;;;10.32;1.70;;;;;;;;;;5093883;28;20491;-67
2023/01/29 11:53:17;;;;;;;11.18;1.88;;;;;;;;;;5094817;28;20023;-61
2023/01/29 11:55:44;;;;;;;13.52;2.08;;;;;;;;;;5097018;28;20042;-60
2023/01/29 11:58:16;;;;;;;6.40;1.05;;;;;;;;;;5095356;28;20032;-60
2023/01/29 12:00:45;;;;;;;12.50;1.85;;;;;;;;;;5095507;28;20028;-60
2023/01/29 12:03:13;;;;;;;7.03;1.40;;;;;;;;;;5095097;28;20023;-60
2023/01/29 12:05:39;;;;;;;5.03;1.05;;;;;;;;;;5093718;28;20101;-59
2023/01/29 12:08:13;;;;;;;4.68;0.70;;;;;;;;;;5094846;28;20016;-59
2023/01/29 12:10:40;;;;;;;8.85;1.58;;;;;;;;;;5094406;28;20032;-60
2023/01/29 12:13:08;;;;;;;8.57;1.08;;;;;;;;;;5094794;28;20024;-58
2023/01/29 12:15:34;;;;;;;6.60;1.67;;;;;;;;;;5095991;28;20050;-59
2023/01/29 12:18:02;;;;;;;18.02;1.40;;;;;;;;;;5093719;28;20036;-58
2023/01/29 12:20:30;;;;;;;7.50;1.15;;;;;;;;;;5092899;28;20031;-62
2023/01/29 12:23:15;;;;;;;8.00;0.70;;;;;;;;;;5094250;28;20016;-60
2023/01/29 12:25:44;;;;;;;5.53;1.40;;;;;;;;;;5094738;28;20675;-60
2023/01/29 12:28:21;;;;;;;12.60;1.58;;;;;;;;;;5092620;28;20056;-58
2023/01/29 12:30:49;;;;;;;8.18;1.50;;;;;;;;;;5096151;28;20027;-58
2023/01/29 12:33:37;;;;;;;2.13;0.80;;;;;;;;;;5095817;28;20049;-60
2023/01/29 12:36:08;;;;;;;4.97;1.00;;;;;;;;;;5094268;28;20035;-60
2023/01/29 12:38:35;;;;;;;6.60;1.15;;;;;;;;;;5092070;28;20032;-58
2023/01/29 12:41:27;;;;;;;5.90;0.95;;;;;;;;;;5093817;28;20035;-62
2023/01/29 12:43:55;;;;;;;5.20;1.08;;;;;;;;;;5091533;28;20146;-62
2023/01/29 12:46:23;;;;;;;7.53;1.23;;;;;;;;;;5091958;28;20035;-58
2023/01/29 12:48:49;;;;;;;8.10;1.65;;;;;;;;;;5091983;28;20051;-60
2023/01/29 12:51:19;;;;;;;9.68;1.33;;;;;;;;;;5092488;28;20440;-59
2023/01/29 12:54:08;;;;;;;5.05;0.85;;;;;;;;;;5094212;28;20017;-60
2023/01/29 12:56:45;;;;;;;10.52;1.02;;;;;;;;;;5093931;28;20039;-59
2023/01/29 12:59:25;;;;;;;7.32;1.77;;;;;;;;;;5092730;28;20031;-58
2023/01/29 13:01:55;;;;;;;6.30;1.10;;;;;;;;;;5091720;28;20028;-57
2023/01/29 13:04:20;;;;;;;8.70;1.77;;;;;;;;;;5093305;28;20024;-59
2023/01/29 13:06:49;;;;;;;7.55;1.15;;;;;;;;;;5092754;28;20063;-59
2023/01/29 13:09:20;;;;;;;6.78;1.08;;;;;;;;;;5092839;28;20409;-61
2023/01/29 13:11:51;;;;;;;14.70;2.30;;;;;;;;;;5092032;28;20051;-59
2023/01/29 13:14:21;;;;;;;7.38;1.10;;;;;;;;;;5092913;28;20028;-60
2023/01/29 13:16:47;;;;;;;6.55;2.17;;;;;;;;;;5091460;28;20035;-62
2023/01/29 13:19:34;;;;;;;7.15;1.83;;;;;;;;;;5092665;28;20103;-58
2023/01/29 13:22:04;;;;;;;9.38;1.45;;;;;;;;;;5091610;28;20016;-59
2023/01/29 13:24:38;;;;;;;2.95;0.70;;;;;;;;;;5091167;28;20016;-58
2023/01/29 13:27:04;;;;;;;8.60;1.25;;;;;;;;;;5091054;28;20035;-60
2023/01/29 13:29:30;;;;;;;4.43;0.47;;;;;;;;;;5092804;28;20020;-58
2023/01/29 13:31:57;;;;;;;9.88;1.63;;;;;;;;;;5091588;28;20024;-60
2023/01/29 13:34:28;;;;;;;6.68;1.13;;;;;;;;;;5093231;28;20305;-58
2023/01/29 13:36:55;;;;;;;11.43;3.45;;;;;;;;;;5092541;28;20028;-60
2023/01/29 13:39:43;;;;;;;7.13;1.08;;;;;;;;;;5092933;28;20028;-60
2023/01/29 13:42:23;;;;;;;17.88;0.68;;;;;;;;;;5092261;28;20019;-59
2023/01/29 13:44:51;;;;;;;8.15;1.20;;;;;;;;;;5093413;28;20056;-58
2023/01/29 13:47:31;;;;;;;10.55;1.38;;;;;;;;;;5092787;28;20495;-60
2023/01/29 13:50:01;;;;;;;7.50;1.60;;;;;;;;;;5091491;28;20388;-60
2023/01/29 13:52:32;;;;;;;5.97;1.42;;;;;;;;;;5092403;28;20024;-58
2023/01/29 13:55:01;;;;;;;7.85;0.95;;;;;;;;;;5092222;28;20028;-59
2023/01/29 13:57:32;;;;;;;5.47;0.90;;;;;;;;;;5092287;28;20028;-61
2023/01/29 13:59:58;;;;;;;5.70;0.70;;;;;;;;;;5091541;28;20027;-58
2023/01/29 14:02:25;;;;;;;14.63;2.08;;;;;;;;;;5092619;28;20469;-61
2023/01/29 14:05:11;;;;;;;5.25;0.70;;;;;;;;;;5094784;28;20032;-60
2023/01/29 14:07:37;;;;;;;;;;;;;;;;;;5094837;28;20043;-60
2023/01/29 14:10:17;;;;;;;2.17;0.68;;;;;;;;;;5097610;28;20312;-62
2023/01/29 14:12:43;;;;;;;7.45;1.63;;;;;;;;;;5097648;28;20081;-60
2023/01/29 14:15:25;;;;;;;3.88;1.30;;;;;;;;;;5096788;28;20020;-58
2023/01/29 14:17:55;;;;;;;5.57;1.00;;;;;;;;;;5096477;28;20601;-60
2023/01/29 14:20:30;;;;;;;9.77;1.50;;;;;;;;;;5094882;28;20024;-59
2023/01/29 14:22:58;;;;;;;5.22;1.00;;;;;;;;;;5097989;28;20016;-60
2023/01/29 14:25:28;;;;;;;8.98;1.60;;;;;;;;;;5097838;28;20031;-62
2023/01/29 14:27:54;;;;;;;7.88;1.27;;;;;;;;;;5097081;28;20499;-60
2023/01/29 14:30:21;;;;;;;8.50;1.15;;;;;;;;;;5095863;28;20020;-58
2023/01/29 14:32:47;;;;;;;13.30;1.60;;;;;;;;;;5095286;28;20111;-62
2023/01/29 14:35:20;;;;;;;8.40;1.60;;;;;;;;;;5094994;28;20027;-59
2023/01/29 14:37:50;;;;;;;10.85;2.47;;;;;;;;;;5096418;28;20326;-66
2023/01/29 14:40:18;;;;;;;6.40;1.33;;;;;;;;;;5096853;28;20065;-64
2023/01/29 14:42:51;;;;;;;3.15;0.82;;;;;;;;;;5094813;28;20031;-58
2023/01/29 14:45:24;;;;;;;10.07;1.80;;;;;;;;;;5095890;28;20392;-59
2023/01/29 14:47:52;;;;;;;9.43;1.38;;;;;;;;;;5094245;28;20032;-60
2023/01/29 14:50:17;;;;;;;8.05;0.98;;;;;;;;;;5095764;28;20472;-60
2023/01/29 14:52:43;;;;;;;9.00;1.63;;;;;;;;;;5095447;28;20020;-63
2023/01/29 14:55:32;;;;;;;5.93;1.17;;;;;;;;;;5095163;28;20071;-59
2023/01/29 14:57:58;;;;;;;6.35;1.00;;;;;;;;;;5087590;28;20508;-60
2023/01/29 15:00:28;;;;;;;9.13;2.00;;;;;;;;;;5095487;28;20020;-58
2023/01/29 15:02:56;;;;;;;15.02;1.60;;;;;;;;;;5095231;28;20016;-59
2023/01/29 15:05:27;;;;;;;6.97;1.30;;;;;;;;;;5095441;28;20479;-59
2023/01/29 15:08:05;;;;;;;9.90;2.58;;;;;;;;;;5094288;28;20039;-61
2023/01/29 15:10:30;;;;;;;7.32;1.10;;;;;;;;;;5096441;28;20078;-58
2023/01/29 15:12:59;;;;;;;9.65;2.28;;;;;;;;;;5095352;28;20457;-59
2023/01/29 15:15:24;;;;;;;10.90;2.08;;;;;;;;;;5096421;28;20020;-60
2023/01/29 15:18:05;;;;;;;8.75;1.60;;;;;;;;;;5096775;28;20388;-58
2023/01/29 15:20:32;;;;;;;8.73;1.42;;;;;;;;;;5094314;28;20031;-57